Terminal Aerodrome Forecast
Issued by NWS Wilmington, OH

Current Version | Previous Version | Graphics & Text | Print | Product List | Glossary On
Versions: 1 2 3 4 5 6 7 8 9 10 11 12 13 14 15 16 17 18
000
FTUS41 KILN 270255 AAA
TAFILN
TAF AMD
KILN 270255Z 2703/2724 00000KT P6SM SCT060
      TEMPO 2706/2710 4SM BR
     FM271400 06004KT P6SM BKN040=

USA.gov is the U.S. government's official web portal to all federal, state and local government web resources and services.